Time;durP1;ratioP1;P1;durP2;ratioP2;P2;SDS_P1;SDS_P2;PMS_P1;PMS_P2;Temp;Humidity;BMP_temperature;BMP_pressure;BME280_temperature;BME280_humidity;BME280_pressure;Samples;Min_cycle;Max_cycle;Signal;HPM_P1;HPM_P2
2023/02/11 00:01:47;;;;;;;29.90;18.90;;;3.50;99.90;;;;;;5071337;28;20664;-67
2023/02/11 00:04:13;;;;;;;32.00;20.67;;;3.60;99.90;;;;;;5072956;28;20642;-67
2023/02/11 00:06:38;;;;;;;32.33;19.07;;;3.50;99.90;;;;;;5074187;28;20652;-67
2023/02/11 00:09:05;;;;;;;31.33;19.57;;;3.60;99.90;;;;;;5070871;28;20186;-67
2023/02/11 00:11:30;;;;;;;31.07;20.50;;;3.60;99.90;;;;;;5072359;28;20599;-67
2023/02/11 00:13:58;;;;;;;23.70;17.40;;;3.50;99.90;;;;;;5071024;28;20452;-67
2023/02/11 00:16:23;;;;;;;24.80;16.57;;;3.40;99.90;;;;;;5071010;28;20754;-67
2023/02/11 00:18:51;;;;;;;31.00;18.70;;;3.30;99.90;;;;;;5072187;28;20436;-67
2023/02/11 00:21:23;;;;;;;26.73;18.20;;;3.30;99.90;;;;;;5070128;28;20243;-67
2023/02/11 00:23:49;;;;;;;29.97;19.60;;;3.30;99.90;;;;;;5073558;28;20462;-67
2023/02/11 00:26:15;;;;;;;26.90;18.10;;;3.30;99.90;;;;;;5067903;28;20472;-67
2023/02/11 00:28:41;;;;;;;28.27;19.33;;;3.30;99.90;;;;;;5072605;28;20800;-67
2023/02/11 00:31:07;;;;;;;30.60;20.33;;;3.30;99.90;;;;;;5068854;28;21047;-67
2023/02/11 00:33:33;;;;;;;31.50;20.30;;;3.20;99.90;;;;;;5053765;28;20598;-67
2023/02/11 00:36:06;;;;;;;27.83;19.70;;;3.30;99.90;;;;;;5071098;28;20452;-67
2023/02/11 00:38:32;;;;;;;29.07;20.03;;;3.30;99.90;;;;;;5072372;28;20186;-67
2023/02/11 00:40:58;;;;;;;34.33;19.83;;;3.30;99.90;;;;;;5048968;28;20456;-67
2023/02/11 00:43:23;;;;;;;30.90;20.60;;;3.40;99.90;;;;;;5077018;28;20565;-67
2023/02/11 00:45:49;;;;;;;34.27;20.70;;;3.40;99.90;;;;;;5068934;28;20209;-68
2023/02/11 00:48:15;;;;;;;27.60;18.20;;;3.40;99.90;;;;;;5070816;28;20194;-67
2023/02/11 00:50:40;;;;;;;31.53;19.80;;;3.40;99.90;;;;;;5070249;28;20178;-67
2023/02/11 00:53:06;;;;;;;27.37;19.40;;;3.40;99.90;;;;;;5067361;28;20241;-67
2023/02/11 00:55:32;;;;;;;25.13;18.20;;;3.30;99.90;;;;;;5067645;28;20838;-68
2023/02/11 00:57:58;;;;;;;29.93;20.37;;;3.30;99.90;;;;;;5072618;28;20186;-67
2023/02/11 01:00:25;;;;;;;24.93;18.57;;;3.30;99.90;;;;;;5075591;28;20245;-68
2023/02/11 01:02:51;;;;;;;30.20;19.00;;;3.30;99.90;;;;;;5073381;28;20449;-67
2023/02/11 01:05:16;;;;;;;26.10;18.70;;;3.30;99.90;;;;;;5074420;28;20456;-67
2023/02/11 01:07:42;;;;;;;29.40;19.10;;;3.30;99.90;;;;;;5068394;28;20464;-67
2023/02/11 01:10:08;;;;;;;28.20;19.07;;;3.30;99.90;;;;;;5072479;28;20274;-67
2023/02/11 01:12:33;;;;;;;23.70;16.70;;;3.40;99.90;;;;;;5073371;28;20534;-67
2023/02/11 01:14:59;;;;;;;24.50;17.50;;;3.60;99.90;;;;;;5054365;28;20208;-67
2023/02/11 01:17:25;;;;;;;25.27;16.90;;;3.50;99.90;;;;;;5072955;28;20202;-67
2023/02/11 01:19:50;;;;;;;24.10;16.90;;;3.50;99.90;;;;;;5070706;28;20182;-67
2023/02/11 01:22:16;;;;;;;28.50;18.50;;;3.50;99.90;;;;;;5073284;28;20976;-67
2023/02/11 01:24:41;;;;;;;28.33;17.93;;;3.60;99.90;;;;;;5072068;28;20194;-67
2023/02/11 01:27:07;;;;;;;29.00;18.07;;;3.50;99.90;;;;;;5067038;28;20226;-67
2023/02/11 01:29:32;;;;;;;32.57;20.10;;;3.40;99.90;;;;;;5070571;28;20182;-67
2023/02/11 01:31:59;;;;;;;33.33;20.77;;;3.40;99.90;;;;;;5072189;28;20195;-67
2023/02/11 01:34:25;;;;;;;27.23;19.17;;;3.40;99.90;;;;;;5078203;28;20686;-67
2023/02/11 01:36:55;;;;;;;28.93;19.10;;;3.30;99.90;;;;;;5077025;28;20539;-67
2023/02/11 01:39:20;;;;;;;24.73;17.90;;;3.40;99.90;;;;;;5066806;28;20183;-68
2023/02/11 01:41:46;;;;;;;28.93;18.97;;;3.50;99.90;;;;;;5077548;28;20428;-67
2023/02/11 01:44:32;;;;;;;27.70;18.10;;;3.50;99.90;;;;;;5072784;28;20182;-67
2023/02/11 01:46:58;;;;;;;34.57;19.20;;;3.50;99.90;;;;;;5070364;28;20207;-68
2023/02/11 01:49:38;;;;;;;24.17;17.37;;;3.60;99.90;;;;;;5075061;28;20428;-68
2023/02/11 01:52:09;;;;;;;31.90;20.63;;;3.60;99.90;;;;;;5071893;28;20799;-67
2023/02/11 01:57:28;;;;;;;28.87;17.80;;;3.50;99.90;;;;;;5075057;28;20510;-67
2023/02/11 02:00:20;;;;;;;26.80;17.43;;;3.70;99.90;;;;;;5076372;28;20432;-67
2023/02/11 02:02:48;;;;;;;30.03;18.43;;;3.70;99.90;;;;;;5069187;28;20906;-68
2023/02/11 02:05:26;;;;;;;28.63;19.53;;;3.60;99.90;;;;;;5071391;28;20460;-67
2023/02/11 02:08:10;;;;;;;28.67;18.73;;;3.60;99.90;;;;;;5070246;28;20495;-67
2023/02/11 02:10:39;;;;;;;33.27;20.57;;;3.70;99.90;;;;;;5072754;28;20440;-67
2023/02/11 02:13:05;;;;;;;26.10;18.77;;;3.70;99.90;;;;;;5068516;28;20474;-68
2023/02/11 02:15:37;;;;;;;31.20;19.73;;;3.70;99.90;;;;;;5076451;28;20432;-68
2023/02/11 02:18:30;;;;;;;28.93;18.53;;;3.80;99.90;;;;;;5057090;28;20663;-67
2023/02/11 02:21:33;;;;;;;33.77;21.47;;;3.80;99.90;;;;;;5073719;28;20521;-68
2023/02/11 02:24:33;;;;;;;28.27;18.50;;;3.60;99.90;;;;;;5072923;28;20540;-67
2023/02/11 02:27:26;;;;;;;32.30;19.50;;;3.50;99.90;;;;;;5054876;28;20847;-67
2023/02/11 02:30:06;;;;;;;29.57;19.07;;;3.60;99.90;;;;;;5072655;28;20443;-67
2023/02/11 02:32:47;;;;;;;27.47;19.20;;;3.70;99.90;;;;;;5072847;28;20518;-67
2023/02/11 02:35:34;;;;;;;29.53;19.03;;;3.70;99.90;;;;;;5071168;28;20452;-67
2023/02/11 02:38:10;;;;;;;25.47;16.10;;;3.70;99.90;;;;;;5055441;28;20969;-67
2023/02/11 02:40:43;;;;;;;29.20;18.37;;;3.50;99.90;;;;;;5072850;28;20448;-67
2023/02/11 02:43:10;;;;;;;30.73;18.67;;;3.30;99.90;;;;;;5067576;28;20452;-68
2023/02/11 02:45:36;;;;;;;30.27;18.33;;;3.40;99.90;;;;;;5069218;28;21494;-68
2023/02/11 02:48:01;;;;;;;25.17;18.60;;;3.50;99.90;;;;;;5072496;28;20504;-67
2023/02/11 02:50:32;;;;;;;26.67;18.43;;;3.40;99.90;;;;;;5073726;28;20190;-68
2023/02/11 02:52:57;;;;;;;30.50;19.17;;;3.50;99.90;;;;;;5073434;28;20238;-68
2023/02/11 02:56:07;;;;;;;29.77;18.80;;;3.50;99.90;;;;;;5070723;28;21056;-68
2023/02/11 02:59:06;;;;;;;30.50;19.00;;;3.50;99.90;;;;;;5050419;28;20206;-68
2023/02/11 03:01:43;;;;;;;28.30;19.30;;;3.40;99.90;;;;;;5070496;28;20531;-68
2023/02/11 03:04:25;;;;;;;28.17;18.43;;;3.40;99.90;;;;;;5069479;28;20468;-68
2023/02/11 03:07:03;;;;;;;31.77;19.20;;;3.30;99.90;;;;;;5070195;28;20475;-68
2023/02/11 03:09:43;;;;;;;31.40;19.53;;;3.30;99.90;;;;;;5069469;28;20458;-68
2023/02/11 03:12:11;;;;;;;36.17;20.63;;;3.30;99.90;;;;;;5067664;28;20448;-67
2023/02/11 03:14:39;;;;;;;30.20;20.17;;;3.30;99.90;;;;;;5071599;28;20562;-67
2023/02/11 03:17:07;;;;;;;25.83;17.70;;;3.30;99.90;;;;;;5067748;28;20464;-67
2023/02/11 03:19:39;;;;;;;31.87;18.60;;;3.30;99.90;;;;;;5065838;28;20436;-68
2023/02/11 03:22:24;;;;;;;30.53;17.90;;;3.40;99.90;;;;;;5067278;28;20708;-67
2023/02/11 03:24:49;;;;;;;25.43;16.97;;;3.40;99.90;;;;;;5070243;28;20466;-67
2023/02/11 03:27:35;;;;;;;25.37;17.17;;;3.50;99.90;;;;;;5068997;28;20456;-68
2023/02/11 03:30:12;;;;;;;27.27;18.80;;;3.50;99.90;;;;;;5054011;28;20672;-68
2023/02/11 03:32:44;;;;;;;26.20;17.73;;;3.50;99.90;;;;;;5069646;28;20444;-68
2023/02/11 03:35:22;;;;;;;27.03;17.90;;;3.60;99.90;;;;;;5067983;28;21929;-68
2023/02/11 03:37:59;;;;;;;30.30;17.73;;;3.60;99.90;;;;;;5071472;28;20465;-68
2023/02/11 03:40:28;;;;;;;30.90;18.90;;;3.50;99.90;;;;;;5070260;28;20443;-68
2023/02/11 03:43:03;;;;;;;34.03;21.07;;;3.40;99.90;;;;;;5073873;28;20474;-68
2023/02/11 03:45:29;;;;;;;31.80;20.43;;;3.40;99.90;;;;;;5074994;28;20860;-68
2023/02/11 03:48:00;;;;;;;34.07;19.90;;;3.40;99.90;;;;;;5073710;28;20464;-67
2023/02/11 03:50:29;;;;;;;34.03;19.10;;;3.40;99.90;;;;;;5068166;28;20445;-68
2023/02/11 03:52:57;;;;;;;31.73;19.10;;;3.40;99.90;;;;;;5063854;28;20473;-69
2023/02/11 03:55:24;;;;;;;26.03;18.07;;;3.30;99.90;;;;;;5073832;28;21071;-68
2023/02/11 03:57:51;;;;;;;26.80;19.17;;;3.30;99.90;;;;;;5072143;28;20468;-68
2023/02/11 04:00:16;;;;;;;29.87;18.90;;;3.30;99.90;;;;;;5071195;28;20844;-67
2023/02/11 04:02:43;;;;;;;28.73;19.53;;;3.30;99.90;;;;;;5073521;28;20440;-68
2023/02/11 04:05:11;;;;;;;27.93;18.33;;;3.30;99.90;;;;;;5074366;28;20778;-67
2023/02/11 04:07:36;;;;;;;26.60;17.20;;;3.30;99.90;;;;;;5074545;28;20769;-67
2023/02/11 04:10:02;;;;;;;25.43;17.17;;;3.40;99.90;;;;;;5052234;28;20463;-67
2023/02/11 04:12:28;;;;;;;29.87;18.77;;;3.40;99.90;;;;;;5074141;28;20178;-68
2023/02/11 04:14:53;;;;;;;26.63;17.50;;;3.50;99.90;;;;;;5071016;28;20246;-66
2023/02/11 04:17:19;;;;;;;27.60;17.17;;;3.50;99.90;;;;;;5074144;28;20226;-66
2023/02/11 04:19:44;;;;;;;27.60;17.50;;;3.60;99.90;;;;;;5066236;28;20204;-66
2023/02/11 04:22:11;;;;;;;30.90;16.70;;;3.60;99.90;;;;;;5067498;28;20779;-66
2023/02/11 04:24:36;;;;;;;24.90;15.77;;;3.50;99.90;;;;;;5068625;28;20190;-66
2023/02/11 04:27:02;;;;;;;26.70;17.20;;;3.60;99.90;;;;;;5069299;28;20887;-66
2023/02/11 04:29:27;;;;;;;23.00;16.40;;;3.40;99.90;;;;;;5069328;28;20194;-66
2023/02/11 04:31:54;;;;;;;21.23;14.60;;;3.50;99.90;;;;;;5071362;28;20197;-66
2023/02/11 04:34:19;;;;;;;29.53;15.93;;;3.50;99.90;;;;;;5068497;28;20289;-67
2023/02/11 04:36:45;;;;;;;22.30;15.67;;;3.40;99.90;;;;;;5068384;28;20554;-67
2023/02/11 04:39:11;;;;;;;24.73;16.30;;;3.50;99.90;;;;;;5069164;28;20183;-67
2023/02/11 04:41:36;;;;;;;27.47;16.23;;;3.50;99.90;;;;;;5072138;28;20187;-66
2023/02/11 04:44:02;;;;;;;24.77;15.03;;;3.50;99.90;;;;;;5069239;28;20241;-67
2023/02/11 04:46:28;;;;;;;25.07;15.47;;;3.50;99.90;;;;;;5068932;28;20236;-66
2023/02/11 04:48:53;;;;;;;24.53;15.53;;;3.50;99.90;;;;;;5069218;28;20464;-66
2023/02/11 04:51:19;;;;;;;25.87;16.23;;;3.60;99.90;;;;;;5048954;28;20277;-66
2023/02/11 04:53:44;;;;;;;24.77;16.30;;;3.60;99.90;;;;;;5069133;28;20283;-66
2023/02/11 04:56:10;;;;;;;23.53;15.50;;;3.50;99.90;;;;;;5069508;28;20217;-66
2023/02/11 04:58:36;;;;;;;24.67;16.20;;;3.50;99.90;;;;;;5074628;28;20187;-66
2023/02/11 05:01:09;;;;;;;25.53;16.47;;;3.50;99.90;;;;;;5072910;28;20205;-66
2023/02/11 05:03:35;;;;;;;30.97;18.53;;;3.40;99.90;;;;;;5072390;28;20187;-66
2023/02/11 05:06:01;;;;;;;30.37;18.20;;;3.30;99.90;;;;;;5070581;28;20700;-66
2023/02/11 05:08:27;;;;;;;25.23;16.50;;;3.30;99.90;;;;;;5068901;28;20545;-66
2023/02/11 05:10:52;;;;;;;28.43;19.23;;;3.30;99.90;;;;;;5066598;28;20905;-66
2023/02/11 05:13:18;;;;;;;28.10;16.03;;;3.40;99.90;;;;;;5070269;28;20363;-66
2023/02/11 05:15:43;;;;;;;30.43;18.43;;;3.40;99.90;;;;;;5068447;28;20261;-67
2023/02/11 05:18:09;;;;;;;26.73;16.93;;;3.30;99.90;;;;;;5068765;28;20658;-67
2023/02/11 05:20:37;;;;;;;26.87;16.80;;;3.30;99.90;;;;;;5053390;28;20214;-67
2023/02/11 05:23:03;;;;;;;25.73;14.93;;;3.30;99.90;;;;;;5068231;28;20182;-67
2023/02/11 05:25:29;;;;;;;24.20;16.63;;;3.20;99.90;;;;;;5071136;28;20516;-67
2023/02/11 05:27:54;;;;;;;27.60;16.40;;;3.10;99.90;;;;;;5067918;28;20194;-67
2023/02/11 05:30:20;;;;;;;26.43;15.40;;;3.20;99.90;;;;;;5069184;28;20715;-67
2023/02/11 05:32:46;;;;;;;25.57;16.60;;;3.20;99.90;;;;;;5069094;28;20229;-67
2023/02/11 05:35:11;;;;;;;24.83;15.17;;;3.20;99.90;;;;;;5069929;28;20191;-67
2023/02/11 05:37:37;;;;;;;21.90;14.20;;;3.20;99.90;;;;;;5066990;28;20207;-67
2023/02/11 05:40:03;;;;;;;25.10;16.03;;;3.30;99.90;;;;;;5072801;28;20179;-67
2023/02/11 05:42:28;;;;;;;24.20;15.90;;;3.30;99.90;;;;;;5069841;28;20711;-67
2023/02/11 05:44:54;;;;;;;25.60;16.37;;;3.20;99.90;;;;;;5073422;28;20431;-67
2023/02/11 05:47:19;;;;;;;20.90;14.87;;;3.20;99.90;;;;;;5069244;28;20286;-67
2023/02/11 05:49:46;;;;;;;22.90;16.10;;;3.20;99.90;;;;;;5074883;28;20194;-67
2023/02/11 05:52:11;;;;;;;26.27;16.70;;;3.30;99.90;;;;;;5072151;28;20609;-67
2023/02/11 05:54:37;;;;;;;21.60;14.87;;;3.30;99.90;;;;;;5070103;28;20460;-67
2023/02/11 05:57:03;;;;;;;24.20;16.30;;;3.30;99.90;;;;;;5072351;28;20207;-67
2023/02/11 05:59:28;;;;;;;21.43;15.20;;;3.20;99.90;;;;;;5069348;28;20418;-67
2023/02/11 06:01:54;;;;;;;27.87;17.27;;;3.30;99.90;;;;;;5074088;28;20174;-66
2023/02/11 06:04:19;;;;;;;28.03;15.80;;;3.20;99.90;;;;;;5057929;28;20298;-67
2023/02/11 06:06:45;;;;;;;27.13;16.90;;;3.30;99.90;;;;;;5074995;28;20210;-67
2023/02/11 06:09:10;;;;;;;25.83;15.73;;;3.30;99.90;;;;;;5069823;28;20194;-67
2023/02/11 06:11:36;;;;;;;25.90;17.97;;;3.30;99.90;;;;;;5074421;28;20182;-67
2023/02/11 06:14:02;;;;;;;27.93;16.83;;;3.20;99.90;;;;;;5071215;28;20503;-67
2023/02/11 06:16:28;;;;;;;27.37;17.97;;;3.20;99.90;;;;;;5069964;28;20216;-67
2023/02/11 06:18:53;;;;;;;33.97;20.17;;;3.20;99.90;;;;;;5070253;28;20425;-67
2023/02/11 06:21:19;;;;;;;29.30;19.50;;;3.20;99.90;;;;;;5073646;28;20178;-67
2023/02/11 06:23:44;;;;;;;30.23;20.93;;;3.10;99.90;;;;;;5070198;28;20182;-66
2023/02/11 06:26:19;;;;;;;27.20;18.00;;;3.00;99.90;;;;;;5075067;28;20202;-66
2023/02/11 06:28:46;;;;;;;31.17;20.03;;;3.00;99.90;;;;;;5074286;28;20613;-66
2023/02/11 06:31:11;;;;;;;35.40;21.23;;;3.10;99.90;;;;;;5072687;28;20527;-66
2023/02/11 06:33:37;;;;;;;32.33;21.37;;;3.10;99.90;;;;;;5070249;28;20478;-67
2023/02/11 06:36:10;;;;;;;34.00;20.70;;;3.10;99.90;;;;;;5055897;28;20199;-67
2023/02/11 06:38:36;;;;;;;37.30;22.50;;;3.10;99.90;;;;;;5073498;28;20441;-67
2023/02/11 06:41:02;;;;;;;31.90;22.37;;;3.10;99.90;;;;;;5067672;28;20879;-66
2023/02/11 06:43:27;;;;;;;33.07;22.43;;;3.00;99.90;;;;;;5070238;28;20441;-67
2023/02/11 06:45:54;;;;;;;35.43;22.90;;;2.90;99.90;;;;;;5069379;28;20786;-67
2023/02/11 06:48:20;;;;;;;33.00;22.50;;;3.00;99.90;;;;;;5068371;28;20213;-66
2023/02/11 06:50:46;;;;;;;38.03;22.40;;;3.00;99.90;;;;;;5069155;28;20456;-67
2023/02/11 06:53:11;;;;;;;35.63;22.97;;;3.10;99.90;;;;;;5072354;28;20464;-67
2023/02/11 06:55:37;;;;;;;37.30;21.63;;;3.00;99.90;;;;;;5069303;28;20449;-67
2023/02/11 06:58:03;;;;;;;35.60;23.47;;;3.10;99.90;;;;;;5067102;28;20538;-67
2023/02/11 07:00:28;;;;;;;35.47;23.03;;;3.10;99.90;;;;;;5071328;28;20233;-67
2023/02/11 07:02:54;;;;;;;39.17;24.47;;;3.10;99.90;;;;;;5051195;28;20182;-67
2023/02/11 07:05:20;;;;;;;37.10;23.20;;;3.10;99.90;;;;;;5067681;28;20198;-66
2023/02/11 07:07:46;;;;;;;34.33;22.67;;;3.20;99.90;;;;;;5051908;28;20210;-66
2023/02/11 07:10:12;;;;;;;39.90;24.93;;;3.20;99.90;;;;;;5068483;28;20482;-66
2023/02/11 07:12:38;;;;;;;39.30;22.70;;;3.30;99.90;;;;;;5054665;28;20455;-66
2023/02/11 07:15:04;;;;;;;36.13;25.47;;;3.20;99.90;;;;;;5068629;28;20444;-66
2023/02/11 07:17:30;;;;;;;34.90;24.20;;;3.10;99.90;;;;;;5068983;28;20210;-67
2023/02/11 07:19:55;;;;;;;38.30;23.93;;;3.00;99.90;;;;;;5071136;28;20477;-67
2023/02/11 07:22:21;;;;;;;40.13;25.87;;;3.00;99.90;;;;;;5068797;28;20573;-67
2023/02/11 07:24:46;;;;;;;48.90;29.40;;;3.10;99.90;;;;;;5069108;28;20244;-67
2023/02/11 07:27:12;;;;;;;46.50;27.60;;;3.20;99.90;;;;;;5068329;28;20210;-67
2023/02/11 07:29:37;;;;;;;35.87;24.97;;;3.20;99.90;;;;;;5073336;28;20234;-68
2023/02/11 07:32:04;;;;;;;37.53;23.03;;;3.30;99.90;;;;;;5075679;28;20452;-67
2023/02/11 07:34:30;;;;;;;37.47;25.87;;;3.30;99.90;;;;;;5072875;28;20698;-68
2023/02/11 07:36:55;;;;;;;33.83;22.70;;;3.30;99.90;;;;;;5055796;28;20448;-68
2023/02/11 07:39:21;;;;;;;39.80;24.30;;;3.40;99.90;;;;;;5067914;28;20190;-68
2023/02/11 07:41:48;;;;;;;41.07;24.20;;;3.40;99.90;;;;;;5066022;28;20191;-67
2023/02/11 07:44:14;;;;;;;40.50;25.10;;;3.40;99.90;;;;;;5070120;28;20190;-68
2023/02/11 07:46:43;;;;;;;35.53;23.93;;;3.30;99.90;;;;;;5074165;28;21062;-68
2023/02/11 07:49:09;;;;;;;39.23;26.00;;;3.40;99.90;;;;;;5065163;28;21186;-68
2023/02/11 07:51:34;;;;;;;41.10;26.83;;;3.40;99.90;;;;;;5067326;28;20480;-67
2023/02/11 07:54:00;;;;;;;42.17;25.77;;;3.30;99.90;;;;;;5065960;28;20202;-67
2023/02/11 07:56:27;;;;;;;37.80;25.40;;;3.40;99.90;;;;;;5068960;28;20676;-68
2023/02/11 07:58:54;;;;;;;40.10;24.10;;;3.30;99.90;;;;;;5072196;28;20178;-68
2023/02/11 08:01:23;;;;;;;39.80;24.77;;;3.30;99.90;;;;;;5067413;28;20950;-68
2023/02/11 08:03:50;;;;;;;43.80;25.83;;;3.30;99.90;;;;;;5071176;28;20441;-67
2023/02/11 08:06:19;;;;;;;40.40;25.90;;;3.30;99.90;;;;;;5055225;28;20558;-67
2023/02/11 08:08:45;;;;;;;41.20;25.97;;;3.40;99.90;;;;;;5072609;28;20447;-68
2023/02/11 08:11:17;;;;;;;40.10;25.73;;;3.40;99.90;;;;;;5054824;28;20508;-68
2023/02/11 08:13:43;;;;;;;45.50;27.00;;;3.30;99.90;;;;;;5069996;28;20464;-68
2023/02/11 08:16:09;;;;;;;42.33;28.37;;;3.40;99.90;;;;;;5069691;28;20520;-67
2023/02/11 08:18:35;;;;;;;47.67;27.80;;;3.40;99.90;;;;;;5070782;28;20440;-68
2023/02/11 08:21:06;;;;;;;42.53;28.10;;;3.30;99.90;;;;;;5066103;28;20444;-68
2023/02/11 08:23:31;;;;;;;40.07;26.03;;;3.30;99.90;;;;;;5052682;28;20539;-68
2023/02/11 08:26:02;;;;;;;45.93;26.40;;;3.30;99.90;;;;;;5067626;28;20567;-67
2023/02/11 08:28:27;;;;;;;49.30;26.17;;;3.30;99.90;;;;;;5070180;28;20191;-68
2023/02/11 08:30:53;;;;;;;39.97;23.50;;;3.30;99.90;;;;;;5069117;28;20967;-68
2023/02/11 08:33:18;;;;;;;45.80;25.30;;;3.30;99.90;;;;;;5069310;28;20963;-67
2023/02/11 08:35:44;;;;;;;33.63;23.37;;;3.20;99.90;;;;;;5067688;28;20190;-66
2023/02/11 08:38:09;;;;;;;40.47;25.37;;;3.20;99.90;;;;;;5069206;28;21924;-67
2023/02/11 08:40:35;;;;;;;40.20;26.27;;;3.20;99.90;;;;;;5069698;28;20225;-68
2023/02/11 08:43:00;;;;;;;40.40;25.37;;;3.30;99.90;;;;;;5070976;28;20198;-67
2023/02/11 08:45:26;;;;;;;41.50;25.13;;;3.30;99.90;;;;;;5070369;28;20190;-68
2023/02/11 08:47:52;;;;;;;40.23;24.93;;;3.40;99.90;;;;;;5072715;28;20931;-68
2023/02/11 08:50:17;;;;;;;36.90;24.70;;;3.40;99.90;;;;;;5072845;28;20182;-68
2023/02/11 08:52:43;;;;;;;36.30;22.30;;;3.40;99.90;;;;;;5071273;28;20644;-68
2023/02/11 08:55:09;;;;;;;41.10;23.20;;;3.50;99.90;;;;;;5045641;28;20179;-67
2023/02/11 08:57:34;;;;;;;38.27;24.90;;;3.40;99.90;;;;;;5067046;28;20202;-68
2023/02/11 09:00:00;;;;;;;37.77;24.33;;;3.40;99.90;;;;;;5073129;28;20182;-68
2023/02/11 09:02:25;;;;;;;36.20;23.37;;;3.40;99.90;;;;;;5069183;28;20186;-68
2023/02/11 09:04:51;;;;;;;38.50;26.33;;;3.50;99.90;;;;;;5069681;28;20574;-67
2023/02/11 09:07:17;;;;;;;41.83;25.63;;;3.60;99.90;;;;;;5069501;28;20239;-68
2023/02/11 09:09:42;;;;;;;37.47;24.17;;;3.60;99.90;;;;;;5066476;28;20274;-68
2023/02/11 09:12:08;;;;;;;43.70;24.90;;;3.70;99.90;;;;;;5066813;28;20183;-68
2023/02/11 09:14:33;;;;;;;39.40;26.07;;;3.70;99.90;;;;;;5049772;28;20202;-67
2023/02/11 09:16:59;;;;;;;41.87;26.90;;;3.80;99.90;;;;;;5063912;28;20349;-67
2023/02/11 09:19:25;;;;;;;41.80;24.33;;;3.70;99.90;;;;;;5058861;28;20184;-67
2023/02/11 09:21:50;;;;;;;33.30;23.73;;;3.80;99.90;;;;;;5056375;28;20186;-67
2023/02/11 09:24:17;;;;;;;39.47;23.40;;;3.70;99.90;;;;;;5054758;28;20182;-67
2023/02/11 09:26:43;;;;;;;44.97;23.83;;;3.80;99.90;;;;;;5066504;28;20195;-67
2023/02/11 09:29:08;;;;;;;39.80;24.77;;;3.80;99.90;;;;;;5055251;28;20475;-67
2023/02/11 09:31:34;;;;;;;48.17;26.47;;;3.80;99.90;;;;;;5067377;28;20446;-67
2023/02/11 09:34:03;;;;;;;42.10;24.03;;;3.80;99.90;;;;;;5069925;28;20517;-68
2023/02/11 09:36:36;;;;;;;37.00;23.70;;;3.90;99.90;;;;;;5070837;28;21211;-67
2023/02/11 09:39:03;;;;;;;36.33;21.67;;;4.00;99.90;;;;;;5068228;28;20447;-68
2023/02/11 09:41:43;;;;;;;37.93;22.90;;;4.00;99.90;;;;;;5067733;28;20475;-68
2023/02/11 09:44:24;;;;;;;36.07;21.73;;;4.00;99.90;;;;;;5069059;28;20436;-69
2023/02/11 09:46:56;;;;;;;41.47;23.23;;;4.10;99.90;;;;;;5073015;28;20491;-68
2023/02/11 09:49:31;;;;;;;37.83;22.50;;;4.10;99.90;;;;;;5073596;28;20447;-68
2023/02/11 09:52:28;;;;;;;35.43;21.17;;;4.20;99.90;;;;;;5075984;28;20535;-68
2023/02/11 09:54:57;;;;;;;39.43;22.90;;;4.40;99.90;;;;;;5050882;28;20476;-69
2023/02/11 09:57:30;;;;;;;34.17;23.57;;;4.50;99.90;;;;;;5072021;28;20453;-68
2023/02/11 09:59:56;;;;;;;36.23;22.50;;;4.60;99.90;;;;;;5073597;28;20718;-67
2023/02/11 10:03:01;;;;;;;31.60;20.30;;;4.80;99.90;;;;;;5068757;28;20474;-68
2023/02/11 10:05:51;;;;;;;35.47;22.27;;;5.20;99.90;;;;;;5073457;28;20487;-68
2023/02/11 10:08:32;;;;;;;34.13;20.70;;;5.20;99.90;;;;;;5070812;28;20494;-67
2023/02/11 10:11:22;;;;;;;32.00;22.30;;;5.30;99.90;;;;;;5073472;28;20447;-67
2023/02/11 10:14:09;;;;;;;38.10;23.80;;;5.50;99.90;;;;;;5060554;28;20606;-69
2023/02/11 10:16:44;;;;;;;34.00;21.93;;;5.60;99.90;;;;;;5069542;28;20490;-68
2023/02/11 10:19:25;;;;;;;34.17;20.77;;;5.70;99.90;;;;;;5066340;28;20444;-68
2023/02/11 10:22:15;;;;;;;32.67;20.33;;;5.70;99.90;;;;;;5063836;28;20480;-67
2023/02/11 10:24:51;;;;;;;34.70;22.10;;;5.70;99.90;;;;;;5064165;28;20527;-68
2023/02/11 10:27:23;;;;;;;34.63;20.90;;;5.70;99.90;;;;;;5053672;28;20980;-68
2023/02/11 10:30:05;;;;;;;31.30;21.17;;;5.70;99.90;;;;;;5064876;28;20459;-68
2023/02/11 10:32:43;;;;;;;33.43;21.37;;;5.70;99.90;;;;;;5066665;28;20515;-69
2023/02/11 10:35:15;;;;;;;35.17;20.93;;;5.80;99.90;;;;;;5073556;28;20468;-69
2023/02/11 10:37:40;;;;;;;34.80;20.90;;;5.70;99.90;;;;;;5067985;28;20460;-68
2023/02/11 10:40:32;;;;;;;26.80;18.37;;;5.80;99.90;;;;;;5062438;28;20836;-67
2023/02/11 10:43:02;;;;;;;35.23;20.97;;;5.80;99.90;;;;;;5049888;28;20301;-67
2023/02/11 10:45:49;;;;;;;30.13;20.13;;;5.80;99.90;;;;;;5066404;28;20485;-67
2023/02/11 10:48:37;;;;;;;32.50;19.40;;;5.80;99.90;;;;;;5050612;28;20821;-68
2023/02/11 10:51:14;;;;;;;30.43;18.80;;;5.90;99.90;;;;;;5065796;28;20452;-68
2023/02/11 10:53:39;;;;;;;28.50;18.67;;;5.90;99.90;;;;;;5065570;28;20512;-68
2023/02/11 10:56:09;;;;;;;29.57;18.90;;;5.90;99.90;;;;;;5065120;28;21035;-69
2023/02/11 10:58:52;;;;;;;28.70;18.37;;;6.00;99.90;;;;;;5064891;28;20191;-68
2023/02/11 11:01:19;;;;;;;23.70;14.70;;;6.10;99.90;;;;;;5065739;28;20449;-68
2023/02/11 11:03:48;;;;;;;26.67;18.13;;;6.20;99.90;;;;;;5067902;28;20454;-69
2023/02/11 11:06:14;;;;;;;28.57;18.00;;;6.30;99.90;;;;;;5049585;28;20480;-69
2023/02/11 11:08:50;;;;;;;24.80;16.60;;;6.40;99.90;;;;;;5064941;28;21232;-68
2023/02/11 11:11:18;;;;;;;28.50;16.40;;;6.40;99.90;;;;;;5068092;28;20450;-69
2023/02/11 11:13:55;;;;;;;26.90;16.60;;;6.50;99.90;;;;;;5066005;28;22502;-68
2023/02/11 11:16:34;;;;;;;27.57;16.00;;;6.50;99.90;;;;;;5064414;28;21050;-69
2023/02/11 11:19:06;;;;;;;26.90;15.97;;;6.60;99.90;;;;;;5047801;28;20536;-68
2023/02/11 11:21:44;;;;;;;30.63;16.03;;;6.80;99.90;;;;;;5065912;28;20491;-68
2023/02/11 11:24:43;;;;;;;24.07;15.97;;;6.90;99.90;;;;;;5063461;28;20471;-69
2023/02/11 11:27:17;;;;;;;24.63;15.93;;;7.00;99.90;;;;;;5067920;28;20822;-69
2023/02/11 11:29:55;;;;;;;30.07;15.10;;;7.10;99.90;;;;;;5066608;28;21129;-69
2023/02/11 11:32:35;;;;;;;22.57;14.40;;;7.20;99.90;;;;;;5068598;28;20447;-69
2023/02/11 11:35:04;;;;;;;23.03;14.33;;;7.30;99.90;;;;;;5064913;28;20473;-69
2023/02/11 11:37:33;;;;;;;20.30;14.63;;;7.30;99.90;;;;;;5066659;28;20509;-69
2023/02/11 11:40:14;;;;;;;19.53;13.20;;;7.30;99.90;;;;;;5068124;28;20448;-69
2023/02/11 11:42:40;;;;;;;20.30;14.97;;;7.40;99.90;;;;;;5066777;28;20437;-70
2023/02/11 11:45:14;;;;;;;23.57;15.13;;;7.30;99.90;;;;;;5049413;28;20447;-69
2023/02/11 11:47:44;;;;;;;22.73;15.30;;;7.40;99.90;;;;;;5061214;28;20205;-69
2023/02/11 11:50:26;;;;;;;24.07;15.60;;;7.40;99.90;;;;;;5068935;28;20445;-69
2023/02/11 11:53:27;;;;;;;25.20;15.30;;;7.50;99.90;;;;;;5067364;28;20444;-69
2023/02/11 11:55:58;;;;;;;28.90;15.80;;;7.60;99.90;;;;;;5060970;28;20459;-69
2023/02/11 11:58:24;;;;;;;29.97;17.23;;;7.80;99.90;;;;;;5063868;28;20494;-69
2023/02/11 12:01:24;;;;;;;22.90;15.87;;;7.90;99.90;;;;;;5070438;28;20437;-69
2023/02/11 12:04:20;;;;;;;22.67;15.80;;;8.00;99.90;;;;;;5063924;28;20186;-69
2023/02/11 12:06:56;;;;;;;22.80;14.83;;;8.10;99.90;;;;;;5062203;28;20464;-70
2023/02/11 12:09:40;;;;;;;20.63;15.30;;;8.30;99.90;;;;;;5066253;28;20443;-70
2023/02/11 12:12:11;;;;;;;24.53;15.83;;;8.60;99.90;;;;;;5065334;28;20437;-70
2023/02/11 12:15:00;;;;;;;20.20;14.70;;;9.10;99.90;;;;;;5068711;28;20468;-70
2023/02/11 12:17:54;;;;;;;24.17;16.10;;;9.60;99.90;;;;;;5066275;28;20460;-69
2023/02/11 12:20:39;;;;;;;19.10;13.40;;;10.20;99.90;;;;;;5061720;28;20867;-69
2023/02/11 12:23:10;;;;;;;22.67;14.93;;;10.40;99.90;;;;;;5068057;28;20436;-69
2023/02/11 12:25:56;;;;;;;24.07;15.60;;;10.70;99.90;;;;;;5048233;28;20448;-70
2023/02/11 12:28:43;;;;;;;18.90;15.00;;;11.00;99.90;;;;;;5064483;28;20562;-69
2023/02/11 12:31:42;;;;;;;21.60;15.90;;;11.20;99.90;;;;;;5066711;28;20440;-69
2023/02/11 12:34:50;;;;;;;24.60;15.70;;;11.30;99.90;;;;;;5062156;28;20555;-70
2023/02/11 12:37:29;;;;;;;24.17;15.00;;;11.40;99.90;;;;;;5048371;28;20465;-70
2023/02/11 12:40:14;;;;;;;23.60;16.90;;;11.30;99.90;;;;;;5047597;28;20432;-69
2023/02/11 12:43:15;;;;;;;19.87;15.57;;;11.60;99.90;;;;;;5062253;28;20436;-69
2023/02/11 12:45:50;;;;;;;20.33;16.00;;;11.80;99.90;;;;;;5063007;28;20451;-69
2023/02/11 12:48:42;;;;;;;20.87;16.10;;;11.70;99.90;;;;;;5068799;28;20721;-69
2023/02/11 12:51:19;;;;;;;24.87;15.80;;;11.80;99.90;;;;;;5060144;28;20468;-70
2023/02/11 12:53:54;;;;;;;22.47;16.07;;;12.00;99.90;;;;;;5061902;28;20507;-71
2023/02/11 12:56:30;;;;;;;26.40;15.90;;;12.10;99.90;;;;;;5067513;28;21076;-70
2023/02/11 12:58:58;;;;;;;22.47;17.07;;;12.20;99.90;;;;;;5069664;28;20432;-69